Time;durP1;ratioP1;P1;durP2;ratioP2;P2;SDS_P1;SDS_P2;PMS_P1;PMS_P2;Temp;Humidity;BMP_temperature;BMP_pressure;BME280_temperature;BME280_humidity;BME280_pressure;Samples;Min_cycle;Max_cycle;Signal;HPM_P1;HPM_P2
2023/12/08 00:01:06;0.00;0.00;0.62;0.00;0.00;0.62;3.40;2.10;;;18.90;24.40;;;;;;2268601;61;20383;-55
2023/12/08 00:03:51;0.00;0.00;0.62;0.00;0.00;0.62;2.17;1.70;;;19.00;24.50;;;;;;2268396;61;20396;-57
2023/12/08 00:06:36;0.00;0.00;0.62;0.00;0.00;0.62;2.30;2.07;;;19.00;24.50;;;;;;2268029;61;20888;-54
2023/12/08 00:09:20;0.00;0.00;0.62;0.00;0.00;0.62;2.00;1.50;;;19.00;24.50;;;;;;2268686;61;20440;-53
2023/12/08 00:12:06;0.00;0.00;0.62;0.00;0.00;0.62;2.40;1.67;;;19.00;24.50;;;;;;2268181;61;20406;-57
2023/12/08 00:14:52;0.00;0.00;0.62;0.00;0.00;0.62;2.27;1.90;;;18.90;24.40;;;;;;2268334;61;20366;-56
2023/12/08 00:17:36;0.00;0.00;0.62;0.00;0.00;0.62;2.60;1.80;;;19.00;24.50;;;;;;2268725;61;20415;-62
2023/12/08 00:20:21;0.00;0.00;0.62;0.00;0.00;0.62;2.77;1.90;;;18.90;24.40;;;;;;2268420;61;20860;-56
2023/12/08 00:23:06;0.00;0.00;0.62;0.00;0.00;0.62;2.40;1.50;;;19.00;24.50;;;;;;2267858;61;20425;-56
2023/12/08 00:25:51;0.00;0.00;0.62;0.00;0.00;0.62;2.47;1.90;;;18.90;24.40;;;;;;2268376;61;20382;-53
2023/12/08 00:28:36;0.00;0.00;0.62;0.00;0.00;0.62;3.07;2.40;;;19.00;24.50;;;;;;2268080;61;20355;-58
2023/12/08 00:31:21;0.00;0.00;0.62;0.00;0.00;0.62;2.30;1.67;;;18.90;24.40;;;;;;2268494;61;20363;-53
2023/12/08 00:34:06;0.00;0.00;0.62;0.00;0.00;0.62;2.60;2.10;;;18.90;24.40;;;;;;2267464;61;20382;-59
2023/12/08 00:36:50;0.00;0.00;0.62;0.00;0.00;0.62;2.40;1.70;;;18.90;24.40;;;;;;2268275;61;20418;-60
2023/12/08 00:39:35;0.00;0.00;0.62;0.00;0.00;0.62;2.00;1.60;;;18.90;24.40;;;;;;2268391;61;20363;-63
2023/12/08 00:42:19;0.00;0.00;0.62;0.00;0.00;0.62;2.63;2.10;;;18.90;24.40;;;;;;2268778;61;20776;-56
2023/12/08 00:45:05;0.00;0.00;0.62;0.00;0.00;0.62;2.00;1.60;;;18.90;24.40;;;;;;2268744;61;20387;-52
2023/12/08 00:47:51;0.00;0.00;0.62;0.00;0.00;0.62;2.50;1.80;;;18.90;24.40;;;;;;2269374;61;20370;-58
2023/12/08 00:50:35;0.00;0.00;0.62;0.00;0.00;0.62;2.60;2.00;;;18.90;24.40;;;;;;2268723;61;20363;-55
2023/12/08 00:53:20;0.00;0.00;0.62;0.00;0.00;0.62;1.80;1.37;;;18.90;24.40;;;;;;2268770;61;20390;-59
2023/12/08 00:56:06;0.00;0.00;0.62;0.00;0.00;0.62;2.07;1.40;;;18.90;24.40;;;;;;2269032;61;20355;-56
2023/12/08 00:58:50;0.00;0.00;0.62;0.00;0.00;0.62;2.03;1.40;;;18.90;24.40;;;;;;2269009;61;20367;-55
2023/12/08 01:01:35;0.00;0.00;0.62;0.00;0.00;0.62;2.60;1.73;;;18.90;24.40;;;;;;2268883;61;20429;-56
2023/12/08 01:04:21;0.00;0.00;0.62;0.00;0.00;0.62;2.23;1.70;;;18.90;24.40;;;;;;2269135;61;20391;-54
2023/12/08 01:07:05;0.00;0.00;0.62;0.00;0.00;0.62;2.50;1.73;;;18.90;24.40;;;;;;2268811;61;20462;-57
2023/12/08 01:09:50;0.00;0.00;0.62;0.00;0.00;0.62;2.67;2.10;;;18.90;24.40;;;;;;2269289;61;20366;-55
2023/12/08 01:12:35;0.00;0.00;0.62;0.00;0.00;0.62;2.80;1.70;;;18.90;24.40;;;;;;2268585;61;20398;-57
2023/12/08 01:15:20;0.00;0.00;0.62;0.00;0.00;0.62;2.27;1.97;;;18.90;24.40;;;;;;2269304;61;20825;-55
2023/12/08 01:18:05;0.00;0.00;0.62;0.00;0.00;0.62;2.60;1.87;;;18.90;24.40;;;;;;2268981;61;20359;-58
2023/12/08 01:20:51;0.00;0.00;0.62;0.00;0.00;0.62;2.57;1.93;;;18.90;24.40;;;;;;2262865;61;20387;-56
2023/12/08 01:23:36;0.00;0.00;0.62;0.00;0.00;0.62;2.10;1.53;;;18.90;24.40;;;;;;2268757;61;20441;-58
2023/12/08 01:26:20;0.00;0.00;0.62;0.00;0.00;0.62;2.30;1.90;;;18.90;24.40;;;;;;2269006;61;20386;-56
2023/12/08 01:29:05;0.00;0.00;0.62;0.00;0.00;0.62;2.53;1.80;;;18.90;24.40;;;;;;2268802;61;20363;-54
2023/12/08 01:31:50;0.00;0.00;0.62;0.00;0.00;0.62;2.87;1.87;;;18.90;24.40;;;;;;2268723;61;20891;-52
2023/12/08 01:34:34;0.00;0.00;0.62;0.00;0.00;0.62;2.10;1.80;;;18.90;24.40;;;;;;2268871;61;20387;-59
2023/12/08 01:37:20;0.00;0.00;0.62;0.00;0.00;0.62;2.37;1.70;;;18.90;24.40;;;;;;2269077;61;20895;-57
2023/12/08 01:40:07;0.00;0.00;0.62;0.00;0.00;0.62;2.00;1.63;;;18.90;24.40;;;;;;2268984;61;20395;-53
2023/12/08 01:42:51;0.00;0.00;0.62;0.00;0.00;0.62;1.80;1.30;;;18.90;24.40;;;;;;2268372;61;20410;-56
2023/12/08 01:45:36;0.00;0.00;0.62;0.00;0.00;0.62;2.97;1.90;;;18.90;24.40;;;;;;2268804;61;20354;-58
2023/12/08 01:48:21;0.00;0.00;0.62;0.00;0.00;0.62;2.23;1.90;;;18.90;24.40;;;;;;2268877;61;20854;-58
2023/12/08 01:51:06;0.00;0.00;0.62;0.00;0.00;0.62;2.20;1.60;;;18.90;24.40;;;;;;2268547;61;20391;-55
2023/12/08 01:53:52;0.00;0.00;0.62;0.00;0.00;0.62;1.70;1.40;;;18.90;24.40;;;;;;2265509;61;20553;-56
2023/12/08 01:56:37;0.00;0.00;0.62;0.00;0.00;0.62;2.70;2.10;;;18.90;24.40;;;;;;2268666;61;20413;-54
2023/12/08 01:59:22;0.00;0.00;0.62;0.00;0.00;0.62;2.30;1.57;;;18.90;24.40;;;;;;2268892;61;20362;-56
2023/12/08 02:02:06;0.00;0.00;0.62;0.00;0.00;0.62;2.30;1.40;;;18.90;24.40;;;;;;2268674;61;20359;-54
2023/12/08 02:04:56;0.00;0.00;0.62;0.00;0.00;0.62;2.80;2.10;;;18.90;24.40;;;;;;2268705;61;20371;-56
2023/12/08 02:07:42;0.00;0.00;0.62;0.00;0.00;0.62;2.00;1.50;;;18.80;24.30;;;;;;2269108;61;20864;-56
2023/12/08 02:10:28;0.00;0.00;0.62;0.00;0.00;0.62;2.70;1.90;;;18.90;24.40;;;;;;2269084;61;20355;-53
2023/12/08 02:13:16;0.00;0.00;0.62;0.00;0.00;0.62;2.30;1.90;;;18.90;24.40;;;;;;2264957;61;20383;-56
2023/12/08 02:16:07;0.00;0.00;0.62;0.00;0.00;0.62;2.87;2.00;;;18.80;24.30;;;;;;2268841;61;20899;-58
2023/12/08 02:18:53;0.00;0.00;0.62;0.00;0.00;0.62;2.73;2.00;;;18.80;24.30;;;;;;2268832;61;20790;-52
2023/12/08 02:21:38;0.00;0.00;0.62;0.00;0.00;0.62;2.30;1.73;;;18.90;24.40;;;;;;2268361;61;20410;-57
2023/12/08 02:24:24;0.00;0.00;0.62;0.00;0.00;0.62;2.20;1.50;;;18.90;24.40;;;;;;2269069;61;20391;-56
2023/12/08 02:27:10;0.00;0.00;0.62;0.00;0.00;0.62;2.17;1.67;;;18.80;24.30;;;;;;2268428;61;20367;-57
2023/12/08 02:29:56;0.00;0.00;0.62;0.00;0.00;0.62;2.07;1.70;;;18.90;24.40;;;;;;2265534;61;20455;-57
2023/12/08 02:32:50;0.00;0.00;0.62;0.00;0.00;0.62;2.20;1.80;;;18.80;24.30;;;;;;2268643;61;20390;-56
2023/12/08 02:35:38;0.00;0.00;0.62;0.00;0.00;0.62;2.20;1.57;;;18.80;24.40;;;;;;2268648;61;20891;-53
2023/12/08 02:38:24;0.00;0.00;0.62;0.00;0.00;0.62;2.50;1.90;;;18.80;24.30;;;;;;2268731;61;20371;-54
2023/12/08 02:41:10;0.00;0.00;0.62;0.00;0.00;0.62;2.20;1.83;;;18.80;24.40;;;;;;2268903;61;20391;-54
2023/12/08 02:43:55;0.00;0.00;0.62;0.00;0.00;0.62;4.00;2.00;;;18.80;24.30;;;;;;2268515;61;20383;-57
2023/12/08 02:46:40;0.00;0.00;0.62;0.00;0.00;0.62;2.17;1.70;;;18.80;24.40;;;;;;2268658;61;20417;-57
2023/12/08 02:49:25;0.00;0.00;0.62;0.00;0.00;0.62;2.67;2.03;;;18.80;24.30;;;;;;2268678;61;20367;-56
2023/12/08 02:52:10;0.00;0.00;0.62;0.00;0.00;0.62;2.23;1.63;;;18.80;24.30;;;;;;2267445;61;20359;-59
2023/12/08 02:54:54;0.00;0.00;0.62;0.00;0.00;0.62;2.07;1.50;;;18.80;24.30;;;;;;2268875;61;20370;-56
2023/12/08 02:57:40;0.00;0.00;0.62;0.00;0.00;0.62;2.07;1.80;;;18.80;24.40;;;;;;2711633;45;20364;-52
2023/12/08 03:00:25;0.00;0.00;0.62;0.00;0.00;0.62;2.03;1.70;;;18.80;24.50;;;;;;2262736;61;20444;-56
2023/12/08 03:03:09;0.00;0.00;0.62;0.00;0.00;0.62;2.57;1.80;;;18.80;24.30;;;;;;2268196;61;20402;-54
2023/12/08 03:05:54;0.00;0.00;0.62;0.00;0.00;0.62;1.93;1.40;;;18.80;24.30;;;;;;2268848;61;20359;-57
2023/12/08 03:08:38;0.00;0.00;0.62;0.00;0.00;0.62;2.30;1.70;;;18.80;24.30;;;;;;2268970;61;20914;-55
2023/12/08 03:11:23;0.00;0.00;0.62;0.00;0.00;0.62;2.30;1.60;;;18.80;24.30;;;;;;2268444;61;20437;-55
2023/12/08 03:14:09;0.00;0.00;0.62;0.00;0.00;0.62;2.43;1.40;;;18.80;24.30;;;;;;2268956;61;20422;-56
2023/12/08 03:16:53;0.00;0.00;0.62;0.00;0.00;0.62;2.37;1.67;;;18.80;24.30;;;;;;2269077;61;20359;-54
2023/12/08 03:19:38;0.00;0.00;0.62;0.00;0.00;0.62;2.33;1.40;;;18.80;24.30;;;;;;2268458;61;20768;-54
2023/12/08 03:22:23;0.00;0.00;0.62;0.00;0.00;0.62;2.80;2.03;;;18.80;24.30;;;;;;2268375;61;20363;-56
2023/12/08 03:25:08;0.00;0.00;0.62;0.00;0.00;0.62;1.90;1.50;;;18.80;24.30;;;;;;2265562;61;20424;-53
2023/12/08 03:27:53;0.00;0.00;0.62;0.00;0.00;0.62;2.57;1.73;;;18.80;24.30;;;;;;2268347;61;20844;-51
2023/12/08 03:30:39;0.00;0.00;0.62;0.00;0.00;0.62;2.80;1.80;;;18.80;24.30;;;;;;2268575;61;20375;-57
2023/12/08 03:33:23;0.00;0.00;0.62;0.00;0.00;0.62;2.17;1.50;;;18.80;24.30;;;;;;2267978;61;21084;-56
2023/12/08 03:36:08;0.00;0.00;0.62;0.00;0.00;0.62;3.33;1.63;;;18.80;24.40;;;;;;2268496;61;20371;-58
2023/12/08 03:38:53;0.00;0.00;0.62;0.00;0.00;0.62;2.20;1.53;;;18.80;24.30;;;;;;2268639;61;20366;-59
2023/12/08 03:41:38;0.00;0.00;0.62;0.00;0.00;0.62;3.23;1.93;;;18.80;24.30;;;;;;2267840;61;20440;-55
2023/12/08 03:44:22;0.00;0.00;0.62;0.00;0.00;0.62;2.20;1.30;;;18.80;24.30;;;;;;2268627;61;20371;-58
2023/12/08 03:47:08;0.00;0.00;0.62;0.00;0.00;0.62;2.30;1.53;;;18.80;24.30;;;;;;2268812;61;20918;-56
2023/12/08 03:49:53;0.00;0.00;0.62;0.00;0.00;0.62;2.30;1.90;;;18.80;24.30;;;;;;2268507;61;20508;-58
2023/12/08 03:52:37;0.00;0.00;0.62;0.00;0.00;0.62;1.97;1.57;;;18.80;24.30;;;;;;2268100;61;20383;-56
2023/12/08 03:55:22;0.00;0.00;0.62;0.00;0.00;0.62;1.73;1.30;;;18.80;24.30;;;;;;2268347;61;20386;-58
2023/12/08 03:58:06;0.00;0.00;0.62;0.00;0.00;0.62;2.10;1.67;;;18.80;24.30;;;;;;2268763;61;20363;-54
2023/12/08 04:00:51;0.00;0.00;0.62;0.00;0.00;0.62;2.20;1.80;;;18.80;24.30;;;;;;2268665;61;20838;-56
2023/12/08 04:03:39;0.00;0.00;0.62;0.00;0.00;0.62;2.30;1.60;;;18.80;24.30;;;;;;2267941;61;20402;-54
2023/12/08 04:06:24;0.00;0.00;0.62;0.00;0.00;0.62;2.00;1.50;;;18.80;24.30;;;;;;2268625;61;20710;-56
2023/12/08 04:09:08;0.00;0.00;0.62;0.00;0.00;0.62;2.90;1.40;;;18.80;24.30;;;;;;2268593;61;20468;-58
2023/12/08 04:11:53;0.00;0.00;0.62;0.00;0.00;0.62;1.70;1.20;;;18.80;24.30;;;;;;2267886;61;20899;-59
2023/12/08 04:14:37;0.00;0.00;0.62;0.00;0.00;0.62;2.97;1.90;;;18.80;24.30;;;;;;2268413;61;20401;-57
2023/12/08 04:17:22;0.00;0.00;0.62;0.00;0.00;0.62;2.10;1.40;;;18.80;24.30;;;;;;2269482;61;20362;-59
2023/12/08 04:20:09;0.00;0.00;0.62;0.00;0.00;0.62;2.20;1.57;;;18.80;24.30;;;;;;2269205;61;20931;-57
2023/12/08 04:22:54;0.00;0.00;0.62;0.00;0.00;0.62;1.70;1.13;;;18.80;24.30;;;;;;2265656;61;20382;-55
2023/12/08 04:25:38;0.00;0.00;0.62;0.00;0.00;0.62;2.00;1.40;;;18.80;24.30;;;;;;2268993;61;20405;-54
2023/12/08 04:28:23;0.00;0.00;0.62;0.00;0.00;0.62;2.70;1.47;;;18.80;24.30;;;;;;2269318;61;20771;-54
2023/12/08 04:31:08;0.00;0.00;0.62;0.00;0.00;0.62;2.07;1.40;;;18.80;24.30;;;;;;2269199;61;20374;-53
2023/12/08 04:33:52;0.00;0.00;0.62;0.00;0.00;0.62;3.47;1.90;;;18.80;24.30;;;;;;2268445;61;20397;-54
2023/12/08 04:36:38;0.00;0.00;0.62;0.00;0.00;0.62;2.37;1.37;;;18.80;24.30;;;;;;2269290;61;20378;-53
2023/12/08 04:39:23;0.00;0.00;0.62;0.00;0.00;0.62;1.80;1.27;;;18.80;24.30;;;;;;2265883;61;20412;-56
2023/12/08 04:42:07;0.00;0.00;0.62;0.00;0.00;0.62;2.20;1.50;;;18.70;24.30;;;;;;2268810;61;20803;-54
2023/12/08 04:44:52;0.00;0.00;0.62;0.00;0.00;0.62;2.30;1.60;;;18.80;24.30;;;;;;2269234;61;20362;-57
2023/12/08 04:47:37;0.00;0.00;0.62;0.00;0.00;0.62;1.80;1.30;;;18.70;24.30;;;;;;2268721;61;20362;-57
2023/12/08 04:50:21;0.00;0.00;0.62;0.00;0.00;0.62;2.13;1.53;;;18.70;24.30;;;;;;2269323;61;20405;-55
2023/12/08 04:53:07;0.00;0.00;0.62;0.00;0.00;0.62;1.70;1.13;;;18.80;24.30;;;;;;2268808;61;20960;-56
2023/12/08 04:55:52;0.00;0.00;0.62;0.00;0.00;0.62;1.63;1.00;;;18.80;24.30;;;;;;2268874;61;20351;-56
2023/12/08 04:58:39;0.00;0.00;0.62;0.00;0.00;0.62;1.97;1.43;;;18.70;24.20;;;;;;2268622;61;20387;-54
2023/12/08 05:01:23;0.00;0.00;0.62;0.00;0.00;0.62;1.63;1.10;;;18.80;24.30;;;;;;2269037;61;20919;-57
2023/12/08 05:04:08;0.00;0.00;0.62;0.00;0.00;0.62;1.97;1.43;;;18.70;24.30;;;;;;2268607;61;20800;-59
2023/12/08 05:06:52;0.00;0.00;0.62;0.00;0.00;0.62;1.90;1.40;;;18.70;24.30;;;;;;2269214;61;20362;-58
2023/12/08 05:09:38;0.00;0.00;0.62;0.00;0.00;0.62;2.03;1.47;;;18.70;24.30;;;;;;2268808;61;20363;-56
2023/12/08 05:12:23;0.00;0.00;0.62;0.00;0.00;0.62;1.90;1.07;;;18.70;24.30;;;;;;2268653;61;20368;-56
2023/12/08 05:15:09;0.00;0.00;0.62;0.00;0.00;0.62;1.77;1.30;;;18.70;24.30;;;;;;2269222;61;20382;-58
2023/12/08 05:17:54;0.00;0.00;0.62;0.00;0.00;0.62;1.80;1.27;;;18.70;24.30;;;;;;2268397;61;20370;-56
2023/12/08 05:20:38;0.00;0.00;0.62;0.00;0.00;0.62;2.20;1.60;;;18.70;24.30;;;;;;2269013;61;20414;-52
2023/12/08 05:23:23;0.00;0.00;0.62;0.00;0.00;0.62;1.97;1.37;;;18.80;24.30;;;;;;2268715;61;20874;-56
2023/12/08 05:26:09;0.00;0.00;0.62;0.00;0.00;0.62;2.00;1.43;;;18.70;24.30;;;;;;2268781;61;20367;-55
2023/12/08 05:28:54;0.00;0.00;0.62;0.00;0.00;0.62;2.10;1.30;;;18.70;24.30;;;;;;2268968;61;20390;-53
2023/12/08 05:31:38;0.00;0.00;0.62;0.00;0.00;0.62;1.80;1.30;;;18.70;24.30;;;;;;2268030;61;20355;-57
2023/12/08 05:34:23;0.00;0.00;0.62;0.00;0.00;0.62;2.33;1.10;;;18.70;24.30;;;;;;2269047;61;20918;-54
2023/12/08 05:37:07;0.00;0.00;0.62;0.00;0.00;0.62;1.70;1.20;;;18.70;24.30;;;;;;2269076;61;20371;-54
2023/12/08 05:39:52;0.00;0.00;0.62;0.00;0.00;0.62;1.93;1.30;;;18.70;24.30;;;;;;2268743;61;20371;-54
2023/12/08 05:42:38;0.00;0.00;0.62;0.00;0.00;0.62;2.13;1.40;;;18.80;24.30;;;;;;2268373;61;20436;-56
2023/12/08 05:45:23;0.00;0.00;0.62;0.00;0.00;0.62;2.13;1.43;;;18.70;24.30;;;;;;2268981;61;20804;-58
2023/12/08 05:48:08;0.00;0.00;0.62;0.00;0.00;0.62;2.13;1.37;;;18.70;24.30;;;;;;2268481;61;20462;-56
2023/12/08 05:50:52;0.00;0.00;0.62;0.00;0.00;0.62;1.90;1.30;;;18.70;24.30;;;;;;2269051;61;20366;-52
2023/12/08 05:53:37;0.00;0.00;0.62;0.00;0.00;0.62;2.27;1.40;;;18.70;24.30;;;;;;2268366;61;20432;-60
2023/12/08 05:56:22;0.00;0.00;0.62;0.00;0.00;0.62;1.83;1.37;;;18.70;24.30;;;;;;2269005;61;20773;-55
2023/12/08 05:59:08;0.00;0.00;0.62;0.00;0.00;0.62;3.40;1.80;;;18.70;24.30;;;;;;2268920;61;20363;-53
2023/12/08 06:01:53;0.00;0.00;0.62;0.00;0.00;0.62;2.27;1.50;;;18.70;24.80;;;;;;2268094;61;20923;-57
2023/12/08 06:04:37;0.00;0.00;0.62;0.00;0.00;0.62;2.47;1.40;;;18.70;24.30;;;;;;2268784;61;20382;-54
2023/12/08 06:07:22;0.00;0.00;0.62;0.00;0.00;0.62;2.80;1.60;;;18.70;24.30;;;;;;2268896;61;20367;-55
2023/12/08 06:10:08;0.00;0.00;0.62;0.00;0.00;0.62;2.20;1.60;;;18.70;24.20;;;;;;2268449;61;20364;-54
2023/12/08 06:12:53;0.00;0.00;0.62;0.00;0.00;0.62;2.07;1.53;;;18.70;24.30;;;;;;2268707;61;20419;-55
2023/12/08 06:15:39;0.00;0.00;0.62;0.00;0.00;0.62;2.00;1.60;;;18.70;24.20;;;;;;2268893;61;20437;-59
2023/12/08 06:18:24;0.00;0.00;0.62;0.00;0.00;0.62;2.27;1.53;;;18.70;24.30;;;;;;2268885;61;20878;-59
2023/12/08 06:21:08;0.00;0.00;0.62;0.00;0.00;0.62;1.83;1.33;;;18.70;24.20;;;;;;2268834;61;20708;-54
2023/12/08 06:23:53;0.00;0.00;0.62;0.00;0.00;0.62;1.80;1.27;;;18.70;24.30;;;;;;2268335;61;20916;-56
2023/12/08 06:26:38;0.00;0.00;0.62;0.00;0.00;0.62;2.10;1.43;;;18.70;24.30;;;;;;2269056;61;20363;-55
2023/12/08 06:29:22;0.00;0.00;0.62;0.00;0.00;0.62;1.90;1.30;;;18.70;24.30;;;;;;2268819;61;20901;-56
2023/12/08 06:32:08;0.00;0.00;0.62;0.00;0.00;0.62;1.97;1.33;;;18.70;24.30;;;;;;2268063;61;20359;-56
2023/12/08 06:34:53;0.00;0.00;0.62;0.00;0.00;0.62;2.13;1.50;;;18.70;24.30;;;;;;2268966;61;20391;-52
2023/12/08 06:37:38;0.00;0.00;0.62;0.00;0.00;0.62;2.13;1.57;;;18.70;24.30;;;;;;2268946;61;20773;-55
2023/12/08 06:40:22;0.00;0.00;0.62;0.00;0.00;0.62;1.60;1.00;;;18.70;24.30;;;;;;2268464;61;20371;-58
2023/12/08 06:43:07;0.00;0.00;0.62;0.00;0.00;0.62;1.90;1.43;;;18.70;24.30;;;;;;2271427;55;20406;-56
2023/12/08 06:45:51;0.00;0.00;0.62;0.00;0.00;0.62;1.83;1.40;;;18.70;24.30;;;;;;2264435;61;20456;-56
2023/12/08 06:48:38;0.00;0.00;0.62;0.00;0.00;0.62;1.70;1.20;;;18.70;24.30;;;;;;2264975;61;20360;-56
2023/12/08 06:51:22;0.00;0.00;0.62;0.00;0.00;0.62;1.93;1.43;;;18.70;24.30;;;;;;2264861;61;20418;-56
2023/12/08 06:54:07;0.00;0.00;0.62;0.00;0.00;0.62;1.63;1.00;;;18.70;24.20;;;;;;2264120;61;20392;-54
2023/12/08 06:56:51;0.00;0.00;0.62;0.00;0.00;0.62;1.90;1.50;;;18.70;24.20;;;;;;2264758;61;20368;-57
2023/12/08 06:59:36;0.00;0.00;0.62;0.00;0.00;0.62;2.43;1.53;;;18.70;24.30;;;;;;2264792;61;20765;-58
2023/12/08 07:02:21;0.00;0.00;0.62;0.00;0.00;0.62;2.10;1.40;;;18.70;24.30;;;;;;2263759;61;20676;-52
2023/12/08 07:05:08;0.00;0.00;0.62;0.00;0.00;0.62;2.20;1.30;;;18.70;24.80;;;;;;2261531;61;20522;-52
2023/12/08 07:07:54;0.00;0.00;0.62;0.00;0.00;0.62;2.10;1.50;;;18.70;24.30;;;;;;2264481;61;20384;-55
2023/12/08 07:10:39;0.00;0.00;0.62;0.00;0.00;0.62;2.00;1.50;;;18.70;24.20;;;;;;2264819;61;20347;-57
2023/12/08 07:13:24;0.00;0.00;0.62;0.00;0.00;0.62;2.07;1.53;;;18.70;24.20;;;;;;2264389;61;20399;-62
2023/12/08 07:16:09;0.00;0.00;0.62;0.00;0.00;0.62;1.73;1.40;;;18.70;24.20;;;;;;2264257;61;20456;-56
2023/12/08 07:18:54;0.00;0.00;0.62;0.00;0.00;0.62;1.63;1.10;;;18.70;24.30;;;;;;2264729;61;20482;-63
2023/12/08 07:21:43;0.00;0.00;0.62;0.00;0.00;0.62;1.90;1.30;;;18.70;24.20;;;;;;2264262;61;20384;-59
2023/12/08 07:24:28;0.00;0.00;0.62;0.00;0.00;0.62;2.20;1.40;;;18.70;24.30;;;;;;2264491;61;20433;-56
2023/12/08 07:27:12;0.00;0.00;0.62;0.00;0.00;0.62;2.10;1.40;;;18.70;24.30;;;;;;2264634;61;20368;-56
2023/12/08 07:29:57;0.00;0.00;0.62;0.00;0.00;0.62;2.17;1.40;;;18.70;24.20;;;;;;2264297;61;20383;-54
2023/12/08 07:32:41;0.00;0.00;0.62;0.00;0.00;0.62;1.60;1.07;;;18.70;24.30;;;;;;2264324;61;20938;-56
2023/12/08 07:35:26;0.00;0.00;0.62;0.00;0.00;0.62;1.97;1.40;;;18.70;24.30;;;;;;2264721;61;20418;-55
2023/12/08 07:38:12;0.00;0.00;0.62;0.00;0.00;0.62;2.10;1.47;;;18.60;24.20;;;;;;2264103;61;20415;-53
2023/12/08 07:40:57;0.00;0.00;0.62;0.00;0.00;0.62;1.77;1.00;;;18.70;24.30;;;;;;2264623;61;20376;-56
2023/12/08 07:43:23;0.00;0.00;0.62;0.00;0.00;0.62;1.80;1.20;;;18.70;24.20;;;;;;2264104;61;20469;-53
2023/12/08 07:45:51;0.00;0.00;0.62;0.00;0.00;0.62;2.57;1.70;;;18.70;24.20;;;;;;2264184;61;20375;-57
2023/12/08 07:48:17;0.00;0.00;0.62;0.00;0.00;0.62;1.70;1.20;;;18.70;24.30;;;;;;2264408;61;20403;-55
2023/12/08 07:50:43;0.00;0.00;0.62;0.00;0.00;0.62;2.23;1.20;;;18.70;24.20;;;;;;2264292;61;20345;-56
2023/12/08 07:53:09;0.00;0.00;0.62;0.00;0.00;0.62;1.60;1.17;;;18.70;24.30;;;;;;2263998;61;20385;-53
2023/12/08 07:55:37;0.00;0.00;0.62;0.00;0.00;0.62;1.80;1.30;;;18.70;24.20;;;;;;2264541;61;20357;-53
2023/12/08 07:58:03;0.00;0.00;0.62;0.00;0.00;0.62;2.40;1.70;;;18.70;24.20;;;;;;2264132;61;20357;-56
2023/12/08 08:00:30;0.00;0.00;0.62;0.00;0.00;0.62;1.70;1.13;;;18.70;24.20;;;;;;2264038;61;20373;-58
2023/12/08 08:02:56;0.00;0.00;0.62;0.00;0.00;0.62;2.00;1.30;;;18.70;24.20;;;;;;2263993;61;20369;-54
2023/12/08 08:05:24;0.00;0.00;0.62;0.00;0.00;0.62;2.17;1.30;;;18.70;24.20;;;;;;2264445;61;20436;-53
2023/12/08 08:07:50;0.00;0.00;0.62;0.00;0.00;0.62;1.67;1.13;;;18.70;24.20;;;;;;2264466;61;20360;-54
2023/12/08 08:10:16;0.00;0.00;0.62;0.00;0.00;0.62;2.10;1.47;;;18.70;24.20;;;;;;2264637;61;20348;-57
2023/12/08 08:12:44;0.00;0.00;0.62;0.00;0.00;0.62;1.83;1.20;;;18.70;24.20;;;;;;2264262;61;20376;-55
2023/12/08 08:15:10;0.00;0.00;0.62;0.00;0.00;0.62;1.90;1.33;;;18.70;24.20;;;;;;2264150;61;21235;-57
2023/12/08 08:17:36;0.00;0.00;0.62;0.00;0.00;0.62;1.70;1.30;;;18.70;24.20;;;;;;2264433;61;20349;-54
2023/12/08 08:20:03;0.00;0.00;0.62;0.00;0.00;0.62;1.90;1.17;;;18.70;24.20;;;;;;2264449;61;20482;-57
2023/12/08 08:22:30;0.00;0.00;0.62;0.00;0.00;0.62;2.20;1.47;;;18.70;24.20;;;;;;2263542;61;20381;-58
2023/12/08 08:25:15;0.00;0.00;0.62;0.00;0.00;0.62;1.77;1.13;;;18.70;24.20;;;;;;2264521;61;20498;-53
2023/12/08 08:28:00;0.00;0.00;0.62;0.00;0.00;0.62;1.60;1.10;;;18.70;24.20;;;;;;2264424;61;20360;-55
2023/12/08 08:30:45;0.00;0.00;0.62;0.00;0.00;0.62;1.73;1.10;;;18.70;24.20;;;;;;2264086;61;20515;-56
2023/12/08 08:33:30;0.00;0.00;0.62;0.00;0.00;0.62;2.30;1.60;;;18.70;24.20;;;;;;2264124;61;20384;-55
2023/12/08 08:36:15;0.00;0.00;0.62;0.00;0.00;0.62;2.10;1.57;;;18.70;24.20;;;;;;2264549;61;20460;-55
2023/12/08 08:39:00;0.00;0.00;0.62;0.00;0.00;0.62;1.70;1.30;;;18.70;24.20;;;;;;2264606;61;20363;-50
2023/12/08 08:41:45;0.00;0.00;0.62;0.00;0.00;0.62;1.90;1.43;;;18.70;24.20;;;;;;2264272;61;20384;-53
2023/12/08 08:44:31;0.00;0.00;0.62;0.00;0.00;0.62;2.20;1.63;;;18.70;24.20;;;;;;2281713;41;21133;-56
2023/12/08 08:47:18;0.00;0.00;0.62;0.00;0.00;0.62;2.80;1.80;;;18.70;24.20;;;;;;2268450;61;20784;-54
2023/12/08 08:50:04;0.00;0.00;0.62;0.00;0.00;0.62;1.80;1.30;;;18.70;24.20;;;;;;2268513;61;20363;-55
2023/12/08 08:52:49;0.00;0.00;0.62;0.00;0.00;0.62;2.23;1.70;;;18.70;24.20;;;;;;2264739;61;20380;-55
2023/12/08 08:55:33;0.00;0.00;0.62;0.00;0.00;0.62;2.33;1.97;;;18.70;24.30;;;;;;2268520;61;20382;-56
2023/12/08 08:58:18;0.00;0.00;0.62;0.00;0.00;0.62;3.10;1.97;;;18.70;24.20;;;;;;2268433;61;20367;-54
2023/12/08 09:01:05;0.00;0.00;0.62;0.00;0.00;0.62;2.40;1.90;;;18.70;24.20;;;;;;2268179;61;20934;-55
2023/12/08 09:03:49;0.00;0.00;0.62;0.00;0.00;0.62;2.67;1.83;;;18.70;24.30;;;;;;2268882;61;20452;-58
2023/12/08 09:06:34;0.00;0.00;0.62;0.00;0.00;0.62;2.63;1.93;;;18.70;24.20;;;;;;2268600;61;20351;-55
2023/12/08 09:09:18;0.00;0.00;0.62;0.00;0.00;0.62;3.30;2.10;;;18.70;24.20;;;;;;2269090;61;20362;-56
2023/12/08 09:12:03;0.00;0.00;0.62;0.00;0.00;0.62;3.10;2.37;;;18.70;24.20;;;;;;2268840;61;20359;-54
2023/12/08 09:14:48;0.00;0.00;0.62;0.00;0.00;0.62;2.87;2.40;;;18.70;24.20;;;;;;2268757;61;20398;-55
2023/12/08 09:17:34;0.00;0.00;0.62;0.00;0.00;0.62;3.63;2.97;;;18.70;24.20;;;;;;2269259;61;20359;-56
2023/12/08 09:20:19;0.00;0.00;0.62;0.00;0.00;0.62;3.07;2.60;;;18.70;24.20;;;;;;2269155;61;20426;-58
2023/12/08 09:23:04;0.00;0.00;0.62;0.00;0.00;0.62;4.40;3.00;;;18.70;24.30;;;;;;2268325;61;20429;-53
2023/12/08 09:25:49;0.00;0.00;0.62;0.00;0.00;0.62;3.77;3.00;;;18.70;24.20;;;;;;2269126;61;20473;-56
2023/12/08 09:28:33;0.00;0.00;0.62;0.00;0.00;0.62;4.00;2.90;;;18.70;24.20;;;;;;2268695;61;20406;-53
2023/12/08 09:31:18;0.00;0.00;0.62;0.00;0.00;0.62;2.90;2.30;;;18.70;24.20;;;;;;2269082;61;20425;-55
2023/12/08 09:34:04;0.00;0.00;0.62;0.00;0.00;0.62;3.90;2.77;;;18.70;24.20;;;;;;2268824;61;20387;-56
2023/12/08 09:36:48;0.00;0.00;0.62;0.00;0.00;0.62;4.33;3.23;;;18.70;24.20;;;;;;2268599;61;20770;-54
2023/12/08 09:39:33;0.00;0.00;0.62;0.00;0.00;0.62;4.43;3.07;;;18.70;24.20;;;;;;2268971;61;20414;-54
2023/12/08 09:42:27;0.00;0.00;0.62;0.00;0.00;0.62;3.77;2.90;;;18.70;24.20;;;;;;2268425;61;20480;-53
2023/12/08 09:45:12;0.00;0.00;0.62;0.00;0.00;0.62;3.77;3.00;;;18.70;24.30;;;;;;2268723;61;20367;-53
2023/12/08 09:47:58;0.00;0.00;0.62;0.00;0.00;0.62;3.97;3.30;;;18.70;24.20;;;;;;2269324;61;20445;-56
2023/12/08 09:50:44;0.00;0.00;0.62;0.00;0.00;0.62;4.30;3.43;;;18.70;24.20;;;;;;2270573;61;21002;-55
2023/12/08 09:53:31;0.00;0.00;0.62;0.00;0.00;0.62;4.33;3.63;;;18.70;24.20;;;;;;2272574;61;20394;-59
2023/12/08 09:56:18;0.00;0.00;0.62;0.00;0.00;0.62;4.87;3.20;;;18.70;24.20;;;;;;2272978;61;20897;-58
2023/12/08 09:59:04;0.00;0.00;0.62;0.00;0.00;0.62;4.50;3.17;;;18.70;24.20;;;;;;2272622;61;20447;-54
2023/12/08 10:01:49;0.00;0.00;0.62;0.00;0.00;0.62;5.53;3.33;;;18.60;24.20;;;;;;2272513;61;20389;-59
2023/12/08 10:04:35;0.00;0.00;0.62;0.00;0.00;0.62;3.60;2.63;;;18.70;24.20;;;;;;2273070;61;20383;-52
2023/12/08 10:07:22;0.00;0.00;0.62;0.00;0.00;0.62;3.50;2.60;;;18.70;24.30;;;;;;2272936;61;20777;-52
2023/12/08 10:10:09;0.00;0.00;0.62;0.00;0.00;0.62;4.30;3.00;;;18.70;24.20;;;;;;2273026;61;20849;-54
2023/12/08 10:12:54;0.00;0.00;0.62;0.00;0.00;0.62;4.30;3.00;;;18.70;24.20;;;;;;2272402;60;20928;-51
2023/12/08 10:15:41;0.00;0.00;0.62;0.00;0.00;0.62;4.50;3.33;;;18.70;24.30;;;;;;2272952;61;20924;-55
2023/12/08 10:18:27;0.00;0.00;0.62;0.00;0.00;0.62;3.70;3.30;;;18.70;24.20;;;;;;2273126;61;20481;-52
2023/12/08 10:21:16;0.00;0.00;0.62;0.00;0.00;0.62;3.70;2.90;;;18.70;24.20;;;;;;2269178;61;20467;-57
2023/12/08 10:24:04;0.00;0.00;0.62;0.00;0.00;0.62;4.07;3.20;;;18.70;24.20;;;;;;2272844;61;20391;-55
2023/12/08 10:26:53;0.00;0.00;0.62;0.00;0.00;0.62;4.63;3.23;;;18.70;24.20;;;;;;2273074;61;20363;-56
2023/12/08 10:29:38;0.00;0.00;0.62;0.00;0.00;0.62;5.73;3.50;;;18.70;24.30;;;;;;2272502;61;20454;-55
2023/12/08 10:32:24;0.00;0.00;0.62;0.00;0.00;0.62;4.77;3.10;;;18.70;24.30;;;;;;2272567;61;20357;-58
2023/12/08 10:35:11;0.00;0.00;0.62;0.00;0.00;0.62;4.70;3.23;;;18.60;24.20;;;;;;2272764;61;20398;-55
2023/12/08 10:37:56;0.00;0.00;0.62;0.00;0.00;0.62;4.63;3.87;;;18.70;24.20;;;;;;2272294;61;20374;-56
2023/12/08 10:40:47;0.00;0.00;0.62;0.00;0.00;0.62;5.63;4.20;;;18.70;24.20;;;;;;2264679;61;20360;-62
2023/12/08 10:43:31;0.00;0.00;0.62;0.00;0.00;0.62;4.90;4.10;;;18.70;24.30;;;;;;2261024;61;20395;-58
2023/12/08 10:46:16;0.00;0.00;0.62;0.00;0.00;0.62;5.97;4.23;;;18.70;24.20;;;;;;2264788;61;20927;-52